Time;durP1;ratioP1;P1;durP2;ratioP2;P2;SDS_P1;SDS_P2;PMS_P1;PMS_P2;Temp;Humidity;BMP_temperature;BMP_pressure;BME280_temperature;BME280_humidity;BME280_pressure;Samples;Min_cycle;Max_cycle;Signal;HPM_P1;HPM_P2
2021/06/26 00:02:45;;;;;;;;;42.00;35.00;;;;;25.09;55.81;98853.69;6063239;28;125884;-58
2021/06/26 00:05:48;;;;;;;;;38.00;31.00;;;;;25.07;55.83;98854.00;6063628;28;126541;-58
2021/06/26 00:08:52;;;;;;;;;38.00;32.40;;;;;25.10;55.96;98863.59;6044036;28;124373;-57
2021/06/26 00:11:57;;;;;;;;;38.00;32.00;;;;;25.08;56.03;98865.84;6064030;28;123595;-58
2021/06/26 00:15:00;;;;;;;;;36.50;32.00;;;;;24.98;56.08;98851.19;6040486;28;126181;-57
2021/06/26 00:18:04;;;;;;;;;40.00;33.00;;;;;25.07;56.24;98864.22;6056432;28;126224;-57
2021/06/26 00:21:07;;;;;;;;;36.25;32.00;;;;;25.05;56.03;98863.72;6044729;28;124758;-58
2021/06/26 00:24:10;;;;;;;;;37.00;30.80;;;;;25.10;55.70;98871.88;6056330;28;126172;-58
2021/06/26 00:27:14;;;;;;;;;35.60;32.00;;;;;25.07;55.91;98865.03;6063146;28;126282;-57
2021/06/26 00:30:19;;;;;;;;;38.00;31.00;;;;;25.09;55.84;98865.53;6063224;28;126301;-58
2021/06/26 00:33:22;;;;;;;;;36.60;32.00;;;;;25.13;55.58;98862.94;6055159;28;124919;-58
2021/06/26 00:36:25;;;;;;;;;35.40;31.40;;;;;25.15;55.75;98853.22;6063615;28;126254;-58
2021/06/26 00:39:29;;;;;;;;;35.60;31.40;;;;;25.20;55.52;98853.09;6063070;28;126502;-57
2021/06/26 00:42:35;;;;;;;;;37.80;32.00;;;;;25.26;55.29;98867.56;6063043;28;126499;-58
2021/06/26 00:45:38;;;;;;;;;35.20;31.80;;;;;25.19;55.15;98865.25;6043614;28;125982;-57
2021/06/26 00:48:41;;;;;;;;;33.25;31.00;;;;;25.30;55.16;98880.41;6063506;28;126286;-58
2021/06/26 00:51:44;;;;;;;;;28.00;26.67;;;;;25.27;53.83;98875.50;6063759;28;125083;-57
2021/06/26 00:54:48;;;;;;;;;33.60;29.00;;;;;25.33;53.54;98876.19;6046344;28;124973;-57
2021/06/26 00:57:56;;;;;;;;;32.50;29.50;;;;;25.35;54.59;98876.69;6063444;28;126210;-58
2021/06/26 01:00:59;;;;;;;;;36.00;31.80;;;;;25.37;54.92;98868.88;6051689;28;126053;-60
2021/06/26 01:04:03;;;;;;;;;37.60;32.00;;;;;25.35;55.10;98873.94;6061941;28;126213;-61
2021/06/26 01:07:07;;;;;;;;;37.40;32.00;;;;;25.32;54.98;98877.31;6061515;28;126001;-60
2021/06/26 01:10:11;;;;;;;;;33.20;30.20;;;;;25.33;55.12;98884.47;6058321;28;124927;-61
2021/06/26 01:13:16;;;;;;;;;30.40;27.00;;;;;25.31;54.00;98870.19;6059958;28;124572;-58
2021/06/26 01:16:19;;;;;;;;;31.40;27.40;;;;;25.32;54.17;98871.78;6040552;28;126015;-58
2021/06/26 01:19:22;;;;;;;;;24.60;22.60;;;;;25.32;52.64;98869.84;6049023;28;126131;-58
2021/06/26 01:22:29;;;;;;;;;31.00;28.50;;;;;25.34;53.48;98875.88;6059442;28;126001;-58
2021/06/26 01:25:32;;;;;;;;;27.20;23.20;;;;;25.36;52.74;98870.03;6059852;28;126074;-58
2021/06/26 01:28:35;;;;;;;;;23.00;21.00;;;;;25.41;52.23;98875.41;6059223;28;126065;-58
2021/06/26 01:31:39;;;;;;;;;25.00;22.40;;;;;25.43;52.39;98859.34;6026364;28;126739;-57
2021/06/26 01:34:42;;;;;;;;;18.60;18.00;;;;;25.42;51.08;98841.16;6065862;28;125395;-58
2021/06/26 01:37:47;;;;;;;;;20.50;19.00;;;;;25.24;51.05;98817.41;6066640;28;125043;-58
2021/06/26 01:40:51;;;;;;;;;20.40;18.00;;;;;25.49;50.87;98848.97;6066752;28;126663;-58
2021/06/26 01:43:54;;;;;;;;;17.80;16.00;;;;;25.43;50.44;98846.34;6066560;28;125039;-58
2021/06/26 01:46:57;;;;;;;;;17.25;16.25;;;;;25.42;50.63;98853.00;6065750;28;126202;-57
2021/06/26 01:50:02;;;;;;;;;18.20;16.80;;;;;25.45;50.91;98851.56;6052245;28;124938;-58
2021/06/26 01:53:07;;;;;;;;;17.80;16.40;;;;;25.42;50.77;98855.75;6063195;28;126419;-58
2021/06/26 01:56:11;;;;;;;;;17.25;16.25;;;;;25.45;50.87;98852.38;6055115;28;124679;-58
2021/06/26 01:59:15;;;;;;;;;16.40;16.00;;;;;25.43;51.38;98848.28;6055031;28;125633;-58
2021/06/26 02:02:18;;;;;;;;;18.40;17.40;;;;;25.39;50.93;98850.91;6057968;28;125065;-58
2021/06/26 02:05:23;;;;;;;;;15.00;15.00;;;;;25.40;51.26;98840.66;6053696;28;125065;-58
2021/06/26 02:08:31;;;;;;;;;17.00;16.00;;;;;25.37;51.58;98835.78;6060775;28;124857;-60
2021/06/26 02:11:35;;;;;;;;;17.20;15.20;;;;;25.34;50.96;98841.94;6047324;28;125637;-61
2021/06/26 02:14:38;;;;;;;;;18.20;17.20;;;;;25.36;50.48;98847.97;6045243;28;124974;-60
2021/06/26 02:17:41;;;;;;;;;17.00;16.00;;;;;25.38;50.55;98845.69;6060605;28;126199;-60
2021/06/26 02:20:45;;;;;;;;;18.00;16.00;;;;;25.37;50.50;98847.63;6065697;28;126263;-60
2021/06/26 02:23:50;;;;;;;;;19.20;17.60;;;;;25.39;50.44;98861.13;6064051;28;125599;-60
2021/06/26 02:26:53;;;;;;;;;16.40;16.40;;;;;25.38;50.46;98854.78;6058411;28;124901;-61
2021/06/26 02:29:56;;;;;;;;;18.75;16.75;;;;;25.37;50.37;98861.44;6034445;28;125084;-58
2021/06/26 02:33:02;;;;;;;;;16.80;16.40;;;;;25.39;50.46;98864.69;6048272;28;126516;-60
2021/06/26 02:36:06;;;;;;;;;17.20;16.60;;;;;25.40;50.53;98873.78;6064902;28;125723;-60
2021/06/26 02:39:10;;;;;;;;;20.00;18.00;;;;;25.40;50.47;98871.03;6057308;28;124837;-60
2021/06/26 02:42:13;;;;;;;;;19.00;18.00;;;;;25.33;50.58;98860.44;6060818;28;124801;-60
2021/06/26 02:45:17;;;;;;;;;19.40;17.40;;;;;25.38;50.88;98870.53;6061928;28;126773;-60
2021/06/26 02:48:20;;;;;;;;;17.00;16.00;;;;;25.36;50.71;98876.34;6061994;28;125880;-60
2021/06/26 02:51:24;;;;;;;;;19.25;18.00;;;;;25.33;50.81;98871.47;6057686;28;126302;-60
2021/06/26 02:54:28;;;;;;;;;18.00;17.20;;;;;25.34;50.83;98877.81;6061138;28;126527;-57
2021/06/26 02:57:31;;;;;;;;;16.00;16.00;;;;;25.38;50.73;98876.03;6061917;28;125441;-57
2021/06/26 03:00:35;;;;;;;;;16.20;16.20;;;;;25.39;50.94;98872.16;6063482;28;126179;-58
2021/06/26 03:03:39;;;;;;;;;18.00;16.00;;;;;25.36;50.90;98873.59;6061081;28;124766;-58
2021/06/26 03:06:43;;;;;;;;;22.00;18.00;;;;;25.36;50.40;98883.84;6060355;28;124942;-57
2021/06/26 03:09:47;;;;;;;;;20.20;18.00;;;;;25.32;50.32;98883.66;6046849;28;126034;-58
2021/06/26 03:12:51;;;;;;;;;18.00;17.00;;;;;25.35;50.39;98883.03;6062318;28;126104;-58
2021/06/26 03:15:54;;;;;;;;;18.20;16.60;;;;;25.39;50.29;98889.53;6058646;28;126639;-58
2021/06/26 03:18:57;;;;;;;;;17.40;16.80;;;;;25.33;50.05;98887.22;6057643;28;124415;-58
2021/06/26 03:22:04;;;;;;;;;17.40;16.00;;;;;25.45;49.95;98892.97;6061871;28;126537;-59
2021/06/26 03:25:14;;;;;;;;;15.00;15.00;;;;;25.43;49.70;98896.03;6057585;28;124457;-57
2021/06/26 03:28:17;;;;;;;;;20.40;19.00;;;;;25.45;49.87;98899.31;6055967;28;125944;-60
2021/06/26 03:31:20;;;;;;;;;15.40;15.40;;;;;25.42;49.71;98901.88;6052703;28;126423;-60
2021/06/26 03:34:24;;;;;;;;;18.00;17.00;;;;;25.43;49.88;98895.22;6059395;28;126634;-60
2021/06/26 03:37:28;;;;;;;;;16.00;16.00;;;;;25.43;49.82;98900.75;6059628;28;126781;-60
2021/06/26 03:40:32;;;;;;;;;20.00;18.00;;;;;25.43;50.05;98904.31;6056482;28;126305;-58
2021/06/26 03:43:37;;;;;;;;;16.00;14.40;;;;;25.45;50.15;98906.78;6054124;28;126144;-57
2021/06/26 03:46:40;;;;;;;;;15.00;14.00;;;;;25.47;50.20;98907.25;6052322;28;126222;-57
2021/06/26 03:49:44;;;;;;;;;16.00;14.00;;;;;25.52;50.09;98909.88;6064051;28;126159;-60
2021/06/26 03:52:47;;;;;;;;;14.60;14.00;;;;;25.49;49.95;98899.47;6057984;28;124767;-59
2021/06/26 03:55:52;;;;;;;;;15.00;15.00;;;;;25.49;49.87;98896.72;6046220;28;125315;-59
2021/06/26 03:58:55;;;;;;;;;19.00;17.00;;;;;25.53;49.97;98888.59;6045553;28;125817;-60
2021/06/26 04:01:58;;;;;;;;;16.00;15.00;;;;;25.52;49.43;98890.53;6057904;28;125755;-60
2021/06/26 04:05:02;;;;;;;;;16.60;15.00;;;;;25.59;49.41;98887.34;6045294;28;126086;-60
2021/06/26 04:08:06;;;;;;;;;17.00;16.00;;;;;25.62;49.44;98887.53;6062171;28;127318;-59
2021/06/26 04:11:11;;;;;;;;;15.40;14.00;;;;;25.67;49.21;98881.84;6056219;28;127189;-59
2021/06/26 04:14:17;;;;;;;;;14.50;13.00;;;;;25.69;48.78;98887.88;6047855;28;126470;-60
2021/06/26 04:17:20;;;;;;;;;15.00;14.50;;;;;25.73;49.23;98880.56;6055812;28;126911;-59
2021/06/26 04:20:24;;;;;;;;;15.00;14.00;;;;;25.68;48.97;98883.47;6062622;28;127174;-60
2021/06/26 04:23:27;;;;;;;;;16.00;14.40;;;;;25.75;48.86;98885.78;6043357;28;126520;-59
2021/06/26 04:26:32;;;;;;;;;14.60;14.00;;;;;25.75;48.69;98889.38;6064322;28;125765;-60
2021/06/26 04:29:36;;;;;;;;;13.60;12.60;;;;;25.79;48.37;98876.53;6062305;28;127719;-60
2021/06/26 04:32:40;;;;;;;;;14.00;13.00;;;;;25.85;48.66;98882.72;6040577;28;127430;-60
2021/06/26 04:35:43;;;;;;;;;15.00;15.00;;;;;25.88;48.13;98876.53;6046501;28;126124;-59
2021/06/26 04:38:46;;;;;;;;;13.00;13.00;;;;;25.98;47.64;98880.94;6059096;28;126267;-59
2021/06/26 04:41:51;;;;;;;;;14.40;14.00;;;;;26.05;47.36;98876.56;6062044;28;126497;-60
2021/06/26 04:44:54;;;;;;;;;14.00;13.00;;;;;26.08;47.25;98877.88;6060764;28;126431;-61
2021/06/26 04:48:00;;;;;;;;;12.00;12.00;;;;;26.11;47.53;98879.97;6054920;28;124800;-60
2021/06/26 04:51:04;;;;;;;;;12.00;12.00;;;;;26.08;47.32;98889.75;6052614;28;126399;-60
2021/06/26 04:54:07;;;;;;;;;13.00;12.60;;;;;26.17;47.02;98876.75;6066298;28;124617;-60
2021/06/26 04:57:11;;;;;;;;;12.20;11.80;;;;;26.28;46.70;98882.81;6056049;28;127170;-60
2021/06/26 05:00:16;;;;;;;;;12.00;12.00;;;;;26.35;46.16;98874.00;6064184;28;125975;-60
2021/06/26 05:03:19;;;;;;;;;9.20;8.60;;;;;26.44;46.96;98875.63;6048232;28;126010;-59
2021/06/26 05:06:25;;;;;;;;;14.00;13.00;;;;;26.53;46.63;98879.22;6042511;28;127253;-59
2021/06/26 05:09:29;;;;;;;;;12.00;12.00;;;;;26.64;46.23;98885.19;6051710;28;127214;-60
2021/06/26 05:12:33;;;;;;;;;12.00;11.75;;;;;26.71;45.70;98878.06;6056387;28;125839;-60
2021/06/26 05:15:38;;;;;;;;;13.00;12.00;;;;;26.81;45.65;98887.97;6057070;28;124878;-60
2021/06/26 05:18:41;;;;;;;;;12.00;11.00;;;;;26.82;45.49;98892.34;6062413;28;125034;-60
2021/06/26 05:21:44;;;;;;;;;12.60;12.00;;;;;26.81;45.20;98896.25;6065700;28;126484;-60
2021/06/26 05:24:47;;;;;;;;;13.40;12.00;;;;;26.90;45.36;98899.03;6057348;28;126938;-59
2021/06/26 05:27:52;;;;;;;;;13.25;12.00;;;;;26.90;45.28;98901.81;6064848;28;126055;-59
2021/06/26 05:30:55;;;;;;;;;13.00;11.00;;;;;26.82;45.62;98903.41;6058663;28;125721;-60
2021/06/26 05:33:59;;;;;;;;;10.00;10.00;;;;;26.85;45.42;98908.28;6066112;28;126247;-60
2021/06/26 05:37:03;;;;;;;;;9.00;8.00;;;;;26.86;46.05;98906.34;6061610;28;126265;-60
2021/06/26 05:40:08;;;;;;;;;11.60;11.40;;;;;26.75;45.23;98908.63;6067320;28;124813;-60
2021/06/26 05:43:12;;;;;;;;;11.00;10.00;;;;;26.78;45.15;98898.88;6057042;28;125970;-59
2021/06/26 05:46:16;;;;;;;;;11.40;11.00;;;;;26.82;45.92;98900.66;6066776;28;125829;-60
2021/06/26 05:49:19;;;;;;;;;11.25;10.75;;;;;26.86;45.17;98903.56;6055786;28;124923;-59
2021/06/26 05:52:22;;;;;;;;;12.00;10.00;;;;;26.91;45.41;98909.78;6046302;28;127523;-60
2021/06/26 05:55:27;;;;;;;;;10.40;9.00;;;;;26.97;45.20;98918.72;6037334;28;124781;-60
2021/06/26 05:58:36;;;;;;;;;9.80;9.80;;;;;26.93;44.81;98937.09;6062282;28;126319;-60
2021/06/26 06:01:39;;;;;;;;;12.00;11.00;;;;;26.86;45.02;98942.31;6055417;28;125120;-60
2021/06/26 06:04:43;;;;;;;;;10.00;9.00;;;;;26.88;45.32;98949.16;6060301;28;124589;-60
2021/06/26 06:07:46;;;;;;;;;11.00;11.00;;;;;26.73;45.13;98939.38;6066540;28;126401;-60
2021/06/26 06:10:49;;;;;;;;;12.80;11.80;;;;;26.77;45.56;98953.38;6058289;28;125493;-60
2021/06/26 06:13:54;;;;;;;;;12.50;11.00;;;;;26.69;46.18;98949.47;6050934;28;125025;-60
2021/06/26 06:16:57;;;;;;;;;14.67;12.00;;;;;26.64;46.44;98952.38;6061055;28;126123;-59
2021/06/26 06:20:03;;;;;;;;;11.20;11.00;;;;;26.62;46.27;98951.09;6065564;28;127171;-60
2021/06/26 06:23:08;;;;;;;;;12.00;11.00;;;;;26.53;46.70;98925.41;6062333;28;126153;-60
2021/06/26 06:26:12;;;;;;;;;12.20;11.60;;;;;26.66;46.24;98941.81;6065841;28;125968;-60
2021/06/26 06:29:16;;;;;;;;;12.60;12.00;;;;;26.69;46.74;98937.59;6056322;28;125548;-59
2021/06/26 06:32:19;;;;;;;;;13.00;11.40;;;;;26.77;46.44;98935.97;6062453;28;126884;-60
2021/06/26 06:35:24;;;;;;;;;13.00;12.00;;;;;26.73;46.42;98933.84;6046596;28;126018;-60
2021/06/26 06:38:27;;;;;;;;;14.00;13.00;;;;;26.83;46.30;98932.69;6036838;28;123889;-60
2021/06/26 06:41:30;;;;;;;;;14.00;13.00;;;;;26.91;46.19;98929.16;6057136;28;125953;-60
2021/06/26 06:44:35;;;;;;;;;12.00;11.00;;;;;26.91;45.94;98925.56;6044088;28;126789;-60
2021/06/26 06:47:40;;;;;;;;;14.00;13.40;;;;;26.93;45.50;98931.56;6050700;28;126258;-59
2021/06/26 06:50:43;;;;;;;;;11.00;11.00;;;;;26.96;45.95;98937.28;6063979;28;124786;-60
2021/06/26 06:53:46;;;;;;;;;13.00;11.00;;;;;26.94;45.64;98936.78;6051927;28;125231;-59
2021/06/26 06:56:49;;;;;;;;;12.00;12.00;;;;;27.04;45.72;98930.09;6019431;28;126214;-59
2021/06/26 06:59:55;;;;;;;;;12.25;12.00;;;;;27.15;45.93;98940.50;6059315;28;126158;-59
2021/06/26 07:02:58;;;;;;;;;11.60;10.60;;;;;27.22;45.26;98931.66;6055462;28;126468;-60
2021/06/26 07:06:01;;;;;;;;;12.00;11.00;;;;;27.38;45.39;98929.19;6045487;28;125869;-60
2021/06/26 07:09:05;;;;;;;;;13.60;12.00;;;;;27.47;45.36;98932.72;6052798;28;127159;-60
2021/06/26 07:12:09;;;;;;;;;16.00;14.00;;;;;27.49;44.34;98931.28;6066603;28;127173;-60
2021/06/26 07:15:16;;;;;;;;;13.75;13.75;;;;;27.43;44.44;98935.34;6044957;28;126097;-60
2021/06/26 07:18:21;;;;;;;;;12.60;11.00;;;;;27.48;44.71;98923.28;6060888;28;125846;-60
2021/06/26 07:21:24;;;;;;;;;13.00;13.00;;;;;27.63;44.74;98925.53;6058138;28;125842;-61
2021/06/26 07:24:27;;;;;;;;;14.00;13.00;;;;;27.78;44.34;98926.91;6057621;28;126248;-60
2021/06/26 07:27:30;;;;;;;;;12.50;11.00;;;;;27.96;44.47;98925.66;6043995;28;124999;-60
2021/06/26 07:30:35;;;;;;;;;13.00;12.00;;;;;28.04;43.69;98918.47;6051474;28;124764;-59
2021/06/26 07:33:38;;;;;;;;;13.00;12.00;;;;;28.18;43.59;98927.38;6061007;28;124417;-59
2021/06/26 07:36:42;;;;;;;;;14.75;14.00;;;;;28.18;42.89;98919.88;6059669;28;123927;-60
2021/06/26 07:39:45;;;;;;;;;13.00;12.00;;;;;28.20;43.30;98919.53;6062846;28;126869;-60
2021/06/26 07:42:48;;;;;;;;;13.00;11.80;;;;;28.14;43.06;98920.88;6059986;28;126239;-60
2021/06/26 07:45:53;;;;;;;;;14.00;14.00;;;;;28.23;42.97;98914.13;6048177;28;127269;-61
2021/06/26 07:48:56;;;;;;;;;12.40;12.00;;;;;28.24;42.93;98906.63;6059953;28;126156;-60
2021/06/26 07:52:00;;;;;;;;;14.40;13.60;;;;;28.25;42.75;98911.81;6059178;28;126124;-60
2021/06/26 07:55:05;;;;;;;;;14.00;12.00;;;;;28.34;43.10;98909.81;6060679;28;126808;-60
2021/06/26 07:58:08;;;;;;;;;12.00;11.00;;;;;28.49;42.12;98916.72;6061330;28;126114;-60
2021/06/26 08:01:16;;;;;;;;;12.00;12.00;;;;;28.56;41.58;98910.59;6054328;28;124391;-59
2021/06/26 08:04:20;;;;;;;;;11.40;10.00;;;;;28.46;42.19;98886.03;6057150;28;125567;-59
2021/06/26 08:07:23;;;;;;;;;10.40;9.20;;;;;28.77;41.60;98900.31;6061456;28;126649;-60
2021/06/26 08:10:26;;;;;;;;;10.00;10.00;;;;;28.95;42.09;98909.28;6053243;28;125144;-60
2021/06/26 08:13:29;;;;;;;;;13.60;12.60;;;;;29.22;41.25;98905.91;6053894;28;127058;-59
2021/06/26 08:16:34;;;;;;;;;13.00;11.00;;;;;29.48;41.53;98905.59;6043691;28;126444;-60
2021/06/26 08:19:38;;;;;;;;;13.00;11.00;;;;;29.65;39.75;98905.38;6062433;28;128154;-59
2021/06/26 08:22:41;;;;;;;;;11.60;11.00;;;;;29.73;40.35;98898.06;6048555;28;126771;-60
2021/06/26 08:25:44;;;;;;;;;14.60;14.00;;;;;29.67;41.43;98892.75;6061957;28;126280;-59
2021/06/26 08:28:47;;;;;;;;;17.00;15.60;;;;;29.65;41.90;98894.28;6061563;28;126489;-59
2021/06/26 08:31:52;;;;;;;;;16.80;15.80;;;;;29.58;40.79;98896.81;6044532;28;125007;-59
2021/06/26 08:34:56;;;;;;;;;17.00;16.00;;;;;29.67;40.76;98895.53;6059932;28;127344;-60
2021/06/26 08:38:09;;;;;;;;;16.80;14.80;;;;;29.67;40.46;98889.16;6061734;28;126022;-60
2021/06/26 08:41:12;;;;;;;;;16.00;14.40;;;;;29.72;40.32;98891.72;6050646;28;125162;-60
2021/06/26 08:44:18;;;;;;;;;17.00;16.40;;;;;29.70;40.87;98883.75;6061390;28;126207;-61
2021/06/26 08:47:22;;;;;;;;;16.60;15.60;;;;;29.88;40.56;98881.53;6062175;28;125899;-59
2021/06/26 08:50:28;;;;;;;;;19.00;18.00;;;;;30.08;39.92;98877.81;6058497;28;127152;-60
2021/06/26 08:53:31;;;;;;;;;17.00;16.00;;;;;30.32;39.38;98873.34;6059270;28;124741;-60
2021/06/26 08:56:34;;;;;;;;;17.00;16.00;;;;;30.45;39.37;98874.91;6045517;28;127277;-60
2021/06/26 08:59:37;;;;;;;;;15.25;15.00;;;;;30.68;39.03;98878.81;6056946;28;124919;-60
2021/06/26 09:02:42;;;;;;;;;14.80;14.20;;;;;30.73;37.92;98873.00;6053514;28;125456;-60
2021/06/26 09:05:47;;;;;;;;;19.80;18.80;;;;;30.67;38.65;98873.59;6042799;28;125985;-60
2021/06/26 09:08:51;;;;;;;;;20.00;18.60;;;;;30.78;38.57;98878.31;6036539;28;126727;-59
2021/06/26 09:12:00;;;;;;;;;18.00;17.00;;;;;30.73;38.34;98873.00;6064429;28;126093;-60
2021/06/26 09:15:04;;;;;;;;;17.40;16.40;;;;;30.78;38.72;98872.75;6056219;28;125767;-60
2021/06/26 09:18:15;;;;;;;;;18.40;17.20;;;;;30.58;39.23;98875.72;6051309;28;126154;-61
2021/06/26 09:21:25;;;;;;;;;19.60;18.60;;;;;30.47;39.32;98883.75;6057437;28;124142;-59
2021/06/26 09:24:41;;;;;;;;;18.50;18.00;;;;;30.34;39.21;98882.16;6050570;28;124988;-60
2021/06/26 09:27:45;;;;;;;;;18.80;17.80;;;;;30.32;39.96;98876.13;6052660;28;125213;-59
2021/06/26 09:30:49;;;;;;;;;21.00;18.00;;;;;30.46;39.44;98865.44;6030935;28;126224;-60
2021/06/26 09:34:00;;;;;;;;;23.00;21.40;;;;;30.70;38.90;98868.13;6054175;28;126020;-60
2021/06/26 09:37:05;;;;;;;;;21.00;19.00;;;;;30.67;38.45;98863.28;6065227;28;126551;-60
2021/06/26 09:40:12;;;;;;;;;21.00;20.00;;;;;30.95;38.61;98861.28;6057022;28;126890;-61
2021/06/26 09:43:26;;;;;;;;;17.00;16.60;;;;;31.49;37.11;98859.88;6052535;28;123957;-59
2021/06/26 09:46:29;;;;;;;;;19.00;18.00;;;;;31.79;36.83;98833.97;6062042;28;126794;-59
2021/06/26 09:49:37;;;;;;;;;19.67;17.67;;;;;32.10;36.43;98860.16;6067203;28;124857;-60
2021/06/26 09:52:45;;;;;;;;;18.00;17.00;;;;;32.09;36.91;98858.53;6060821;28;125923;-60
2021/06/26 09:55:53;;;;;;;;;22.20;21.20;;;;;31.91;36.38;98863.72;6066453;28;125761;-60
2021/06/26 09:58:56;;;;;;;;;18.60;18.00;;;;;31.62;36.73;98850.31;6055013;28;124727;-60
2021/06/26 10:02:01;;;;;;;;;19.60;19.00;;;;;31.61;36.57;98855.06;6057336;28;125801;-59
2021/06/26 10:05:07;;;;;;;;;24.80;21.80;;;;;31.56;37.25;98857.28;6064019;28;124711;-60
2021/06/26 10:08:11;;;;;;;;;20.00;19.00;;;;;31.35;37.28;98850.00;6062931;28;126901;-60
2021/06/26 10:11:15;;;;;;;;;23.00;23.00;;;;;31.53;37.18;98863.56;6057596;28;124935;-60
2021/06/26 10:14:19;;;;;;;;;21.40;21.00;;;;;31.66;37.09;98845.63;6061859;28;124682;-60
2021/06/26 10:17:23;;;;;;;;;24.00;22.00;;;;;31.56;37.85;98846.13;6059206;28;124921;-59
2021/06/26 10:20:29;;;;;;;;;23.40;22.00;;;;;31.51;37.03;98851.97;6061423;28;125224;-59
2021/06/26 10:23:34;;;;;;;;;18.00;17.00;;;;;31.23;37.74;98849.28;6060572;28;124891;-60
2021/06/26 10:26:39;;;;;;;;;16.50;15.50;;;;;31.19;39.39;98865.09;6062983;28;125938;-61
2021/06/26 10:29:42;;;;;;;;;18.00;18.00;;;;;30.88;40.91;98866.66;6061735;28;126067;-60
2021/06/26 10:32:54;;;;;;;;;18.60;17.60;;;;;30.44;41.72;98867.75;6064622;28;125330;-60
2021/06/26 10:36:00;;;;;;;;;15.00;14.00;;;;;29.88;42.46;98867.63;6061224;28;125998;-60
2021/06/26 10:39:04;;;;;;;;;15.67;14.67;;;;;29.57;42.49;98882.09;6053548;28;124841;-60
2021/06/26 10:42:09;;;;;;;;;13.00;12.00;;;;;29.30;43.84;98882.75;6055818;28;126482;-60
2021/06/26 10:45:27;;;;;;;;;14.20;13.80;;;;;29.01;44.64;98882.94;6059271;28;126201;-60
2021/06/26 10:48:30;;;;;;;;;15.00;14.00;;;;;28.76;45.09;98890.38;6062167;28;124076;-60
2021/06/26 10:51:37;;;;;;;;;16.60;16.00;;;;;28.58;44.79;98899.97;6059967;28;125274;-59
2021/06/26 10:54:51;;;;;;;;;15.40;14.40;;;;;28.27;44.01;98892.06;6040463;28;125998;-62
2021/06/26 10:57:55;;;;;;;;;16.60;15.40;;;;;28.08;44.02;98898.06;6060585;28;125854;-59
2021/06/26 11:01:10;;;;;;;;;16.00;15.20;;;;;28.00;44.99;98890.63;6063232;28;96584;-60
2021/06/26 11:04:14;;;;;;;;;16.00;14.25;;;;;27.84;45.42;98884.84;6056646;28;126673;-59
2021/06/26 11:07:19;;;;;;;;;15.60;15.00;;;;;27.63;46.46;98869.31;6054364;28;126151;-60
2021/06/26 11:10:22;;;;;;;;;15.80;14.00;;;;;27.64;46.87;98876.50;6056971;28;125897;-60
2021/06/26 11:13:29;;;;;;;;;16.00;16.00;;;;;27.71;47.61;98869.25;6059358;28;126544;-59
2021/06/26 11:16:32;;;;;;;;;17.00;16.60;;;;;27.75;47.67;98883.28;6065418;28;124891;-60
2021/06/26 11:19:35;;;;;;;;;19.60;18.20;;;;;27.85;46.98;98880.94;6062845;28;126507;-60
2021/06/26 11:22:44;;;;;;;;;18.00;16.00;;;;;27.88;47.20;98885.78;6062898;28;126262;-59
2021/06/26 11:25:47;;;;;;;;;21.40;19.00;;;;;27.77;46.99;98856.84;6060207;28;126588;-60
2021/06/26 11:28:50;;;;;;;;;23.00;20.40;;;;;28.03;47.42;98884.41;6053397;28;125081;-60
2021/06/26 11:31:53;;;;;;;;;20.50;19.00;;;;;28.08;47.24;98877.84;6055266;28;124880;-60
2021/06/26 11:35:01;;;;;;;;;20.00;18.00;;;;;28.23;47.90;98880.03;6061651;28;125070;-59
2021/06/26 11:38:11;;;;;;;;;16.50;16.50;;;;;28.40;47.37;98877.94;6056698;28;126080;-60
2021/06/26 11:41:14;;;;;;;;;18.00;17.00;;;;;28.55;47.15;98870.13;6055916;28;124163;-60
2021/06/26 11:44:18;;;;;;;;;17.00;15.00;;;;;28.82;46.73;98875.13;6064551;28;126370;-59
2021/06/26 11:47:27;;;;;;;;;17.40;16.80;;;;;29.00;46.41;98876.56;6053599;28;124769;-60
2021/06/26 11:50:30;;;;;;;;;16.00;15.00;;;;;29.11;45.15;98882.50;6063268;28;127402;-59
2021/06/26 11:53:40;;;;;;;;;15.00;15.00;;;;;29.17;45.62;98883.91;6062221;28;125928;-59
2021/06/26 11:56:50;;;;;;;;;13.50;13.00;;;;;29.46;45.70;98888.47;6066619;28;126128;-61
2021/06/26 11:59:53;;;;;;;;;14.00;13.00;;;;;29.61;44.54;98885.84;6064746;28;126150;-60
2021/06/26 12:02:57;;;;;;;;;11.60;11.60;;;;;29.91;44.52;98889.19;6060419;28;125030;-59
2021/06/26 12:06:01;;;;;;;;;13.00;11.40;;;;;30.12;42.97;98883.47;6062202;28;126159;-59
2021/06/26 12:09:07;;;;;;;;;14.60;14.00;;;;;30.15;43.08;98870.84;6054171;28;125191;-60
2021/06/26 12:12:12;;;;;;;;;13.33;13.33;;;;;30.08;43.13;98866.69;6045880;28;123713;-60
2021/06/26 12:15:15;;;;;;;;;15.40;14.40;;;;;30.06;41.34;98863.44;6062446;28;125871;-60
2021/06/26 12:18:18;;;;;;;;;12.50;12.00;;;;;30.06;42.06;98860.66;6060216;28;125024;-60
2021/06/26 12:21:25;;;;;;;;;13.00;12.40;;;;;30.29;41.26;98852.63;6055509;28;126453;-59
2021/06/26 12:24:36;;;;;;;;;12.00;11.00;;;;;30.57;40.42;98852.66;6055071;28;125204;-59
2021/06/26 12:27:39;;;;;;;;;14.00;13.00;;;;;30.66;40.12;98847.75;6053078;28;126349;-60
2021/06/26 12:30:43;;;;;;;;;16.20;15.20;;;;;30.65;40.08;98840.56;6054729;28;125869;-59
2021/06/26 12:33:47;;;;;;;;;13.00;13.00;;;;;30.69;39.27;98852.59;6045699;28;125057;-60
2021/06/26 12:36:54;;;;;;;;;14.50;14.00;;;;;31.08;39.75;98850.09;6066313;28;125182;-59
2021/06/26 12:40:05;;;;;;;;;12.60;12.60;;;;;31.23;38.60;98840.91;6037235;28;125254;-62
2021/06/26 12:43:12;;;;;;;;;14.00;13.00;;;;;31.08;38.99;98823.06;6055906;28;126337;-59
2021/06/26 12:46:16;;;;;;;;;10.00;9.00;;;;;31.37;37.84;98841.31;6059060;28;126236;-59
2021/06/26 12:49:20;;;;;;;;;6.00;6.00;;;;;31.21;37.89;98848.84;6051665;28;124902;-60
2021/06/26 12:52:23;;;;;;;;;10.00;9.00;;;;;30.96;37.85;98853.72;6049078;28;124820;-60
2021/06/26 12:55:28;;;;;;;;;9.00;8.00;;;;;30.76;37.56;98832.50;6051042;28;125072;-59
2021/06/26 12:58:31;;;;;;;;;7.80;6.00;;;;;30.81;38.82;98826.66;6054463;28;126098;-60
2021/06/26 13:01:35;;;;;;;;;9.25;9.00;;;;;30.92;40.42;98828.59;6051670;28;126183;-59
2021/06/26 13:04:42;;;;;;;;;12.00;11.00;;;;;31.00;41.02;98826.78;6059390;28;126486;-59
2021/06/26 13:07:46;;;;;;;;;10.00;9.67;;;;;31.03;41.65;98825.31;6063706;28;126224;-58
2021/06/26 13:10:52;;;;;;;;;10.00;9.40;;;;;31.09;41.14;98804.34;6051726;28;125436;-59
2021/06/26 13:13:55;;;;;;;;;12.80;11.20;;;;;31.20;41.47;98827.72;6062126;28;125072;-59
2021/06/26 13:16:58;;;;;;;;;13.00;13.00;;;;;31.16;40.95;98833.22;6065124;28;125628;-59
2021/06/26 13:20:01;;;;;;;;;12.00;12.00;;;;;31.14;40.72;98824.38;6044541;28;127890;-60
2021/06/26 13:23:09;;;;;;;;;11.60;11.60;;;;;31.12;40.71;98831.50;6068165;28;126599;-59
2021/06/26 13:26:14;;;;;;;;;12.00;12.00;;;;;31.13;39.69;98831.13;6059812;28;126076;-59
2021/06/26 13:29:18;;;;;;;;;15.00;13.00;;;;;31.17;40.92;98831.25;6054055;28;126427;-60
2021/06/26 13:32:21;;;;;;;;;14.00;13.00;;;;;31.03;39.33;98837.25;6063295;28;124996;-58
2021/06/26 13:35:25;;;;;;;;;12.60;11.00;;;;;30.97;40.00;98828.31;6064767;28;125938;-58
2021/06/26 13:38:29;;;;;;;;;13.60;13.00;;;;;30.94;39.79;98836.56;6056446;28;125730;-58
2021/06/26 13:41:33;;;;;;;;;15.00;13.00;;;;;30.94;40.09;98836.56;6060362;28;124904;-59
2021/06/26 13:44:37;;;;;;;;;13.00;13.00;;;;;30.88;39.27;98824.91;6037833;28;124763;-59
2021/06/26 13:47:40;;;;;;;;;12.00;12.00;;;;;31.03;38.97;98825.31;6061792;28;126956;-59
2021/06/26 13:50:44;;;;;;;;;16.00;16.00;;;;;31.05;39.38;98820.97;6056153;28;126597;-59
2021/06/26 13:53:47;;;;;;;;;13.00;10.20;;;;;31.04;39.94;98819.34;6061481;28;125897;-60
2021/06/26 13:56:57;;;;;;;;;13.00;12.00;;;;;30.92;40.14;98817.44;6056019;28;126094;-59
2021/06/26 14:00:00;;;;;;;;;11.80;10.00;;;;;30.81;40.89;98815.53;6051600;28;125910;-59